KAKH/AKH METAR and TAF weather

Enter ICAO airport designator
Station Type Date Time Source
KAKH METAR 2018/10/22 16:54 UTC NOAA

KAKH 221654Z AUTO VRB04KT 10SM CLR 16/01 A3033 RMK AO2 SLP272 T01610011


Station Type Date Time Source
KAKH Decoded METAR 2018/10/22 16:54 UTC NOAA

GASTONIA MUNICIPAL AIRPORT, NC, United States (KAKH) 35-12N 81-09W 243M
Oct 22, 2018 - 12:54 PM EDT / 2018.10.22 1654 UTC
Wind: Variable at 5 MPH (4 KT):0
Visibility: 10 mile(s):0
Sky conditions: clear
Temperature: 61.0 F (16.1 C)
Dew Point: 34.0 F (1.1 C)
Relative Humidity: 36%
Pressure (altimeter): 30.33 in. Hg (1027 hPa)
ob: KAKH 221654Z AUTO VRB04KT 10SM CLR 16/01 A3033 RMK AO2 SLP272 T01610011
cycle: 17

Station Type Date Time Source
KAKH TAF UTC NOAA

Error!


Example: see airport list